createdAt,value
2018-04-10T00:00:05.486Z,24.80
2018-04-10T00:01:05.470Z,25.10
2018-04-10T00:02:05.458Z,24.90
2018-04-10T00:03:05.442Z,25.00
2018-04-10T00:04:05.428Z,24.30
2018-04-10T00:05:05.413Z,24.30
2018-04-10T00:06:05.399Z,24.00
2018-04-10T00:07:05.397Z,24.70
2018-04-10T00:08:05.370Z,25.10
2018-04-10T00:09:05.354Z,25.10
2018-04-10T00:10:05.341Z,25.50
2018-04-10T00:11:05.326Z,24.90
2018-04-10T00:12:05.313Z,24.50
2018-04-10T00:13:05.297Z,24.70
2018-04-10T00:14:05.284Z,25.00
2018-04-10T00:15:05.268Z,24.80
2018-04-10T00:16:05.262Z,24.40
2018-04-10T00:17:05.242Z,25.80
2018-04-10T00:18:05.225Z,25.40
2018-04-10T00:19:05.209Z,23.70
2018-04-10T00:20:05.193Z,25.50
2018-04-10T00:21:05.177Z,25.30
2018-04-10T00:22:05.166Z,25.90
2018-04-10T00:23:05.150Z,25.60
2018-04-10T00:24:05.135Z,27.00
2018-04-10T00:25:05.120Z,26.70
2018-04-10T00:26:05.110Z,27.10
2018-04-10T00:27:05.091Z,27.10
2018-04-10T00:28:05.081Z,26.20
2018-04-10T00:29:05.069Z,27.20
2018-04-10T00:30:05.049Z,26.10
2018-04-10T00:31:05.035Z,26.10
2018-04-10T00:32:05.018Z,26.70
2018-04-10T00:33:05.005Z,27.60
2018-04-10T00:34:04.989Z,26.30
2018-04-10T00:35:04.975Z,26.40
2018-04-10T00:36:04.965Z,26.80
2018-04-10T00:37:04.951Z,28.80
2018-04-10T00:38:04.931Z,28.10
2018-04-10T00:39:04.922Z,28.90
2018-04-10T00:40:04.901Z,29.20
2018-04-10T00:41:04.888Z,27.30
2018-04-10T00:42:04.872Z,27.40
2018-04-10T00:43:04.858Z,26.90
2018-04-10T00:44:04.845Z,28.60
2018-04-10T00:45:04.826Z,27.80
2018-04-10T00:46:04.813Z,29.50
2018-04-10T00:47:04.799Z,28.30
2018-04-10T00:48:04.785Z,29.80
2018-04-10T00:49:04.772Z,30.40
2018-04-10T00:50:04.757Z,28.90
2018-04-10T00:51:04.740Z,30.30
2018-04-10T00:52:04.725Z,29.10
2018-04-10T00:53:04.711Z,30.00
2018-04-10T00:54:04.695Z,29.70
2018-04-10T00:55:04.680Z,29.90
2018-04-10T00:56:04.667Z,29.50
2018-04-10T00:57:04.652Z,31.30
2018-04-10T00:58:04.636Z,29.20
2018-04-10T00:59:04.621Z,30.80
2018-04-10T01:00:04.605Z,31.50
2018-04-10T01:01:04.591Z,30.40
2018-04-10T01:02:04.577Z,30.70
2018-04-10T01:03:04.562Z,29.70
2018-04-10T01:04:04.546Z,29.50
2018-04-10T01:05:04.532Z,29.70
2018-04-10T01:06:04.517Z,31.40
2018-04-10T01:07:04.503Z,28.80
2018-04-10T01:08:04.490Z,30.20
2018-04-10T01:09:04.472Z,31.10
2018-04-10T01:10:04.457Z,32.20
2018-04-10T01:11:04.444Z,32.50
2018-04-10T01:12:04.426Z,31.50
2018-04-10T01:13:04.412Z,31.60
2018-04-10T01:14:04.398Z,30.80
2018-04-10T01:15:04.383Z,31.20
2018-04-10T01:16:04.368Z,30.50
2018-04-10T01:17:04.353Z,31.50
2018-04-10T01:18:04.344Z,30.40
2018-04-10T01:19:04.325Z,30.50
2018-04-10T01:20:04.308Z,30.30
2018-04-10T01:21:04.294Z,30.30
2018-04-10T01:22:04.278Z,30.80
2018-04-10T01:23:04.263Z,30.90
2018-04-10T01:24:04.251Z,30.10
2018-04-10T01:25:04.234Z,31.20
2018-04-10T01:26:04.219Z,29.70
2018-04-10T01:27:04.205Z,29.70
2018-04-10T01:28:04.188Z,31.20
2018-04-10T01:29:04.172Z,31.30
2018-04-10T01:30:04.157Z,31.70
2018-04-10T01:31:04.143Z,30.80
2018-04-10T01:32:04.130Z,30.80
2018-04-10T01:33:04.112Z,32.10
2018-04-10T01:34:04.097Z,32.00
2018-04-10T01:35:04.083Z,32.00
2018-04-10T01:36:04.067Z,33.10
2018-04-10T01:37:04.053Z,32.90
2018-04-10T01:38:04.038Z,31.90
2018-04-10T01:39:04.025Z,31.10
2018-04-10T01:40:04.057Z,31.20
2018-04-10T01:41:03.996Z,32.10
2018-04-10T01:42:03.978Z,32.70
2018-04-10T01:43:03.962Z,31.80
2018-04-10T01:44:03.948Z,30.80
2018-04-10T01:45:03.936Z,33.40
2018-04-10T01:46:03.917Z,32.80
2018-04-10T01:47:03.903Z,31.30
2018-04-10T01:48:03.889Z,33.00
2018-04-10T01:49:03.876Z,32.30
2018-04-10T01:50:03.908Z,33.60
2018-04-10T01:51:03.843Z,33.50
2018-04-10T01:52:03.828Z,33.60
2018-04-10T01:53:03.813Z,33.20
2018-04-10T01:54:03.800Z,31.70
2018-04-10T01:55:03.784Z,33.20
2018-04-10T01:56:03.766Z,32.00
2018-04-10T01:57:03.753Z,32.50
2018-04-10T01:58:03.736Z,32.20
2018-04-10T01:59:03.723Z,33.00
2018-04-10T02:00:03.706Z,33.80
2018-04-10T02:01:03.692Z,32.50
2018-04-10T02:02:03.679Z,32.70
2018-04-10T02:03:03.661Z,32.60
2018-04-10T02:04:03.647Z,32.70
2018-04-10T02:05:03.635Z,34.30
2018-04-10T02:06:03.617Z,32.70
2018-04-10T02:07:03.602Z,33.20
2018-04-10T02:08:03.588Z,33.50
2018-04-10T02:09:03.571Z,33.00
2018-04-10T02:10:03.555Z,33.50
2018-04-10T02:14:30.951Z,33.00
2018-04-10T02:15:30.938Z,33.90
2018-04-10T02:16:30.922Z,34.80
2018-04-10T02:17:30.902Z,34.20
2018-04-10T02:18:30.895Z,34.60
2018-04-10T02:19:33.976Z,36.00
2018-04-10T02:20:30.858Z,34.00
2018-04-10T02:21:30.844Z,35.40
2018-04-10T02:22:30.831Z,35.80
2018-04-10T02:23:30.811Z,35.00
2018-04-10T02:24:30.799Z,34.10
2018-04-10T02:25:30.781Z,35.40
2018-04-10T02:26:30.765Z,37.00
2018-04-10T02:27:30.754Z,35.50
2018-04-10T02:28:30.738Z,35.40
2018-04-10T02:29:30.721Z,35.30
2018-04-10T02:30:30.706Z,36.50
2018-04-10T02:31:30.690Z,35.80
2018-04-10T02:32:30.677Z,36.50
2018-04-10T02:33:30.659Z,34.80
2018-04-10T02:34:30.646Z,35.50
2018-04-10T02:35:30.629Z,37.10
2018-04-10T02:36:30.618Z,37.10
2018-04-10T02:37:30.602Z,36.90
2018-04-10T02:38:30.582Z,37.60
2018-04-10T02:39:30.567Z,36.40
2018-04-10T02:40:30.553Z,36.70
2018-04-10T02:41:30.537Z,36.30
2018-04-10T02:42:30.522Z,36.20
2018-04-10T02:43:30.504Z,36.60
2018-04-10T02:44:30.494Z,36.70
2018-04-10T02:45:30.475Z,37.00
2018-04-10T02:46:30.462Z,36.60
2018-04-10T02:47:30.445Z,37.40
2018-04-10T02:48:30.431Z,36.90
2018-04-10T02:49:30.413Z,37.20
2018-04-10T02:50:30.402Z,37.30
2018-04-10T02:51:30.382Z,36.50
2018-04-10T02:52:30.368Z,37.30
2018-04-10T02:53:30.352Z,38.70
2018-04-10T02:54:30.339Z,38.60
2018-04-10T02:55:30.322Z,37.40
2018-04-10T02:56:30.306Z,38.30
2018-04-10T02:57:30.292Z,36.40
2018-04-10T02:58:30.276Z,37.00
2018-04-10T02:59:30.261Z,36.80
2018-04-10T03:00:30.244Z,36.90
2018-04-10T03:01:30.231Z,38.40
2018-04-10T03:02:30.214Z,38.10
2018-04-10T03:03:30.201Z,38.10
2018-04-10T03:04:30.184Z,36.70
2018-04-10T03:05:30.166Z,38.40
2018-04-10T03:06:30.153Z,37.40
2018-04-10T03:07:30.138Z,39.60
2018-04-10T03:08:30.124Z,37.60
2018-04-10T03:09:30.110Z,38.90
2018-04-10T03:10:30.091Z,38.20
2018-04-10T03:11:30.079Z,38.50
2018-04-10T03:12:30.065Z,39.00
2018-04-10T03:13:30.046Z,38.00
2018-04-10T03:14:30.027Z,38.50
2018-04-10T03:15:30.016Z,37.50
2018-04-10T03:16:29.998Z,39.40
2018-04-10T03:17:29.982Z,39.20
2018-04-10T03:18:29.966Z,38.00
2018-04-10T03:19:29.951Z,37.80
2018-04-10T03:20:29.935Z,40.20
2018-04-10T03:21:29.919Z,39.50
2018-04-10T03:22:29.904Z,39.80
2018-04-10T03:23:29.887Z,40.20
2018-04-10T03:24:29.875Z,37.90
2018-04-10T03:25:29.859Z,38.70
2018-04-10T03:26:29.842Z,38.10
2018-04-10T03:27:29.827Z,37.80
2018-04-10T03:28:29.812Z,38.90
2018-04-10T03:29:29.795Z,38.30
2018-04-10T03:30:29.782Z,37.70
2018-04-10T03:31:29.766Z,37.90
2018-04-10T03:32:29.753Z,38.20
2018-04-10T03:33:29.734Z,37.70
2018-04-10T03:34:29.717Z,36.60
2018-04-10T03:35:29.701Z,38.10
2018-04-10T03:36:29.686Z,38.10
2018-04-10T03:37:29.672Z,37.30
2018-04-10T03:38:29.657Z,37.80
2018-04-10T03:39:29.641Z,38.00
2018-04-10T03:40:29.626Z,38.20
2018-04-10T03:41:29.607Z,38.30
2018-04-10T03:42:29.593Z,35.90
2018-04-10T03:43:29.580Z,38.20
2018-04-10T03:44:29.561Z,37.80
2018-04-10T03:45:29.548Z,36.80
2018-04-10T03:46:29.529Z,38.30
2018-04-10T03:47:29.514Z,37.20
2018-04-10T03:48:29.497Z,39.60
2018-04-10T03:49:29.481Z,37.90
2018-04-10T03:50:29.468Z,38.10
2018-04-10T03:51:29.450Z,40.00
2018-04-10T03:52:29.436Z,39.00
2018-04-10T03:53:29.420Z,36.90
2018-04-10T03:54:29.403Z,38.50
2018-04-10T03:55:29.389Z,41.00
2018-04-10T03:56:29.375Z,38.40
2018-04-10T03:57:29.356Z,38.60
2018-04-10T04:00:13.044Z,39.90
2018-04-10T04:01:13.028Z,38.20
2018-04-10T04:02:13.012Z,39.00
2018-04-10T04:03:12.996Z,38.40
2018-04-10T04:04:12.982Z,38.30
2018-04-10T04:05:12.965Z,38.00
2018-04-10T04:06:12.948Z,38.00
2018-04-10T04:07:12.932Z,37.20
2018-04-10T04:08:12.918Z,37.60
2018-04-10T04:09:12.901Z,38.80
2018-04-10T04:10:12.887Z,38.60
2018-04-10T04:11:12.870Z,38.70
2018-04-10T04:12:12.854Z,38.40
2018-04-10T04:13:12.838Z,38.30
2018-04-10T04:14:12.822Z,38.00
2018-04-10T04:15:12.806Z,36.90
2018-04-10T04:16:12.789Z,37.90
2018-04-10T04:17:12.773Z,37.50
2018-04-10T04:18:12.760Z,37.60
2018-04-10T04:19:12.741Z,38.30
2018-04-10T04:20:12.731Z,38.80
2018-04-10T04:21:12.712Z,39.10
2018-04-10T04:22:12.699Z,37.30
2018-04-10T04:23:12.679Z,37.90
2018-04-10T04:24:12.664Z,38.80
2018-04-10T04:25:12.653Z,37.90
2018-04-10T04:26:12.633Z,38.70
2018-04-10T04:27:12.616Z,38.70
2018-04-10T04:28:12.601Z,37.60
2018-04-10T04:29:12.585Z,39.10
2018-04-10T04:30:12.569Z,39.10
2018-04-10T04:31:12.553Z,38.80
2018-04-10T04:32:12.543Z,37.20
2018-04-10T04:33:12.523Z,38.20
2018-04-10T04:34:12.505Z,37.20
2018-04-10T04:35:12.489Z,36.70
2018-04-10T04:36:12.475Z,37.30
2018-04-10T04:37:12.459Z,36.90
2018-04-10T04:38:12.449Z,36.50
2018-04-10T04:39:12.427Z,39.00
2018-04-10T04:40:12.417Z,37.30
2018-04-10T04:41:12.394Z,37.40
2018-04-10T04:42:12.378Z,38.90
2018-04-10T04:43:12.364Z,37.90
2018-04-10T04:44:12.348Z,38.40
2018-04-10T04:45:12.332Z,37.90
2018-04-10T04:46:12.317Z,38.50
2018-04-10T04:47:12.301Z,36.90
2018-04-10T04:48:12.293Z,37.00
2018-04-10T04:49:12.269Z,36.60
2018-04-10T04:50:12.253Z,36.90
2018-04-10T04:51:12.245Z,37.00
2018-04-10T04:52:12.226Z,37.40
2018-04-10T04:53:12.205Z,35.70
2018-04-10T04:54:12.199Z,37.20
2018-04-10T04:55:12.173Z,36.10
2018-04-10T04:56:12.159Z,35.40
2018-04-10T04:57:12.143Z,36.30
2018-04-10T04:58:12.132Z,36.30
2018-04-10T04:59:12.112Z,35.90
2018-04-10T05:00:12.098Z,35.60
2018-04-10T05:01:12.086Z,35.40
2018-04-10T05:02:12.068Z,37.80
2018-04-10T05:03:12.049Z,36.70
2018-04-10T05:04:12.037Z,35.90
2018-04-10T05:05:12.017Z,36.40
2018-04-10T05:06:12.003Z,36.60
2018-04-10T05:07:11.985Z,36.20
2018-04-10T05:08:11.970Z,36.30
2018-04-10T05:09:11.956Z,36.00
2018-04-10T05:10:11.940Z,36.50
2018-04-10T05:11:11.923Z,36.50
2018-04-10T05:12:11.908Z,36.40
2018-04-10T05:13:11.892Z,36.00
2018-04-10T05:14:11.878Z,37.00
2018-04-10T05:15:11.861Z,35.60
2018-04-10T05:16:11.847Z,35.20
2018-04-10T05:17:11.833Z,36.40
2018-04-10T05:18:11.815Z,36.10
2018-04-10T05:19:11.796Z,36.00
2018-04-10T05:20:11.783Z,36.70
2018-04-10T05:21:11.771Z,36.40
2018-04-10T05:22:11.753Z,34.90
2018-04-10T05:23:11.739Z,37.10
2018-04-10T05:24:11.721Z,36.30
2018-04-10T05:25:11.706Z,35.40
2018-04-10T05:26:11.690Z,36.30
2018-04-10T05:27:11.675Z,36.50
2018-04-10T05:28:11.660Z,36.70
2018-04-10T05:29:11.645Z,36.20
2018-04-10T05:30:11.632Z,35.40
2018-04-10T05:31:11.611Z,35.00
2018-04-10T05:32:11.598Z,36.30
2018-04-10T05:33:11.582Z,36.30
2018-04-10T05:34:11.566Z,35.50
2018-04-10T05:35:11.552Z,36.50
2018-04-10T05:36:11.537Z,34.70
2018-04-10T05:37:11.522Z,35.90
2018-04-10T05:38:11.511Z,36.10
2018-04-10T05:39:11.492Z,35.50
2018-04-10T05:40:11.475Z,36.10
2018-04-10T05:41:11.463Z,34.90
2018-04-10T05:42:11.445Z,36.10
2018-04-10T05:43:11.431Z,36.20
2018-04-10T05:44:11.413Z,33.90
2018-04-10T05:45:11.400Z,35.10
2018-04-10T05:46:11.389Z,34.30
2018-04-10T05:47:11.368Z,34.30
2018-04-10T05:48:11.354Z,35.10
2018-04-10T05:49:11.340Z,34.70
2018-04-10T05:50:11.323Z,33.70
2018-04-10T05:51:11.309Z,35.10
2018-04-10T05:52:11.302Z,34.30
2018-04-10T05:53:11.319Z,33.50
2018-04-10T05:54:11.262Z,33.60
2018-04-10T05:55:11.248Z,32.80
2018-04-10T05:56:11.233Z,34.40
2018-04-10T05:57:11.217Z,34.20
2018-04-10T05:58:11.204Z,32.90
2018-04-10T05:59:11.191Z,33.90
2018-04-10T06:00:11.172Z,33.30
2018-04-10T06:01:11.158Z,33.60
2018-04-10T06:02:11.143Z,33.20
2018-04-10T06:03:11.127Z,33.10
2018-04-10T06:04:11.112Z,34.00
2018-04-10T06:05:11.100Z,33.80
2018-04-10T06:06:11.084Z,32.60
2018-04-10T06:07:11.073Z,33.00
2018-04-10T06:08:11.056Z,32.80
2018-04-10T06:09:11.041Z,32.40
2018-04-10T06:10:11.024Z,34.70
2018-04-10T06:11:11.008Z,32.80
2018-04-10T06:12:10.995Z,32.90
2018-04-10T06:13:10.981Z,32.90
2018-04-10T06:14:10.967Z,33.10
2018-04-10T06:15:10.953Z,32.40
2018-04-10T06:16:10.936Z,32.30
2018-04-10T06:17:10.924Z,31.70
2018-04-10T06:18:10.909Z,33.10
2018-04-10T06:19:10.891Z,31.70
2018-04-10T06:20:10.879Z,31.90
2018-04-10T06:21:10.866Z,31.40
2018-04-10T06:22:10.877Z,32.50
2018-04-10T06:23:10.836Z,32.50
2018-04-10T06:24:10.830Z,31.30
2018-04-10T06:25:10.810Z,32.10
2018-04-10T06:26:10.794Z,31.40
2018-04-10T06:27:10.779Z,31.00
2018-04-10T06:28:10.764Z,31.10
2018-04-10T06:29:10.753Z,31.00
2018-04-10T06:30:10.737Z,31.70
2018-04-10T06:31:10.724Z,32.20
2018-04-10T06:32:10.709Z,30.80
2018-04-10T06:33:10.706Z,31.20
2018-04-10T06:34:10.683Z,32.10
2018-04-10T06:35:10.667Z,31.00
2018-04-10T06:36:10.655Z,31.20
2018-04-10T06:37:10.642Z,31.70
2018-04-10T06:38:10.626Z,31.40
2018-04-10T06:39:10.612Z,30.90
2018-04-10T06:40:10.601Z,30.70
2018-04-10T06:41:10.589Z,30.80
2018-04-10T06:42:10.575Z,31.50
2018-04-10T06:43:10.559Z,31.20
2018-04-10T06:44:10.543Z,30.60
2018-04-10T06:45:10.532Z,31.20
2018-04-10T06:46:10.518Z,31.90
2018-04-10T06:47:10.502Z,32.00
2018-04-10T06:48:10.489Z,31.70
2018-04-10T06:49:10.491Z,31.80
2018-04-10T06:50:10.463Z,32.30
2018-04-10T06:51:10.456Z,31.10
2018-04-10T06:52:10.438Z,30.50
2018-04-10T06:53:10.424Z,31.90
2018-04-10T06:54:10.408Z,31.20
2018-04-10T06:55:10.394Z,31.00
2018-04-10T06:56:10.383Z,31.40
2018-04-10T06:57:10.374Z,30.10
2018-04-10T06:58:10.357Z,30.90
2018-04-10T06:59:10.341Z,30.70
2018-04-10T07:00:10.331Z,30.10
2018-04-10T07:01:10.316Z,31.00
2018-04-10T07:02:10.318Z,30.40
2018-04-10T07:03:10.295Z,29.80
2018-04-10T07:04:10.280Z,30.30
2018-04-10T07:05:10.265Z,30.30
2018-04-10T07:06:10.259Z,30.60
2018-04-10T07:07:10.241Z,29.90
2018-04-10T07:08:10.231Z,29.30
2018-04-10T07:09:10.215Z,29.00
2018-04-10T07:10:10.208Z,30.10
2018-04-10T07:11:10.190Z,29.00
2018-04-10T07:12:10.178Z,29.20
2018-04-10T07:13:10.165Z,30.30
2018-04-10T07:14:10.160Z,29.80
2018-04-10T07:15:10.142Z,29.90
2018-04-10T07:16:10.128Z,30.30
2018-04-10T07:17:10.118Z,29.60
2018-04-10T07:18:10.108Z,30.30
2018-04-10T07:19:10.093Z,29.20
2018-04-10T07:20:10.081Z,29.50
2018-04-10T07:21:10.077Z,29.80
2018-04-10T07:22:10.058Z,30.20
2018-04-10T07:23:10.052Z,30.00
2018-04-10T07:24:10.034Z,29.60
2018-04-10T07:25:10.022Z,30.00
2018-04-10T07:26:10.014Z,29.40
2018-04-10T07:27:10.004Z,29.60
2018-04-10T07:28:09.991Z,28.50
2018-04-10T07:29:09.982Z,29.30
2018-04-10T07:30:09.973Z,28.50
2018-04-10T07:31:09.965Z,27.80
2018-04-10T07:32:09.956Z,28.40
2018-04-10T07:33:09.944Z,28.50
2018-04-10T07:34:09.936Z,27.10
2018-04-10T07:35:09.929Z,28.70
2018-04-10T07:36:09.924Z,28.70
2018-04-10T07:37:09.911Z,28.60
2018-04-10T07:38:09.903Z,28.10
2018-04-10T07:39:09.898Z,27.80
2018-04-10T07:40:09.888Z,28.80
2018-04-10T07:41:09.879Z,27.90
2018-04-10T07:42:09.877Z,26.50
2018-04-10T07:43:09.867Z,27.20
2018-04-10T07:44:09.866Z,26.90
2018-04-10T07:45:09.855Z,26.90
2018-04-10T07:46:09.853Z,26.10
2018-04-10T07:47:09.844Z,26.40
2018-04-10T07:48:09.841Z,27.50
2018-04-10T07:49:09.837Z,27.40
2018-04-10T07:50:09.831Z,26.30
2018-04-10T07:51:09.828Z,26.30
2018-04-10T07:52:09.827Z,26.00
2018-04-10T07:53:09.815Z,26.10
2018-04-10T07:54:09.809Z,26.70
2018-04-10T07:55:09.814Z,26.50
2018-04-10T07:56:09.808Z,26.60
2018-04-10T07:57:09.804Z,25.40
2018-04-10T07:58:09.796Z,24.70
2018-04-10T07:59:09.793Z,24.70
2018-04-10T08:00:09.790Z,24.40
2018-04-10T08:01:09.787Z,25.40
2018-04-10T08:02:09.785Z,25.70
2018-04-10T08:03:09.786Z,25.40
2018-04-10T08:04:09.782Z,24.90
2018-04-10T08:05:09.778Z,25.70
2018-04-10T08:06:09.777Z,24.50
2018-04-10T08:07:09.778Z,24.30
2018-04-10T08:08:09.772Z,23.80
2018-04-10T08:09:09.786Z,24.30
2018-04-10T08:10:09.769Z,24.90
2018-04-10T08:11:09.768Z,23.30
2018-04-10T08:12:09.766Z,24.70
2018-04-10T08:13:09.764Z,23.80
2018-04-10T08:14:09.763Z,23.60
2018-04-10T08:15:09.764Z,22.20
2018-04-10T08:16:09.762Z,22.40
2018-04-10T08:17:09.762Z,23.90
2018-04-10T08:18:09.762Z,23.00
2018-04-10T08:19:09.761Z,22.30
2018-04-10T08:20:09.759Z,23.00
2018-04-10T08:21:09.761Z,22.30
2018-04-10T08:22:09.760Z,22.90
2018-04-10T08:23:09.756Z,22.90
2018-04-10T08:24:09.764Z,23.10
2018-04-10T08:25:09.756Z,22.80
2018-04-10T08:26:09.758Z,23.70
2018-04-10T08:27:09.757Z,21.50
2018-04-10T08:28:09.757Z,22.10
2018-04-10T08:29:09.755Z,22.50
2018-04-10T08:30:09.761Z,21.80
2018-04-10T08:31:09.757Z,20.80
2018-04-10T08:32:09.756Z,22.80
2018-04-10T08:33:09.762Z,21.10
2018-04-10T08:34:09.762Z,21.60
2018-04-10T08:35:09.761Z,21.40
2018-04-10T08:36:09.764Z,21.60
2018-04-10T08:37:09.762Z,21.20
2018-04-10T08:38:09.765Z,20.90
2018-04-10T08:39:09.767Z,21.20
2018-04-10T08:40:09.763Z,20.80
2018-04-10T08:41:09.764Z,20.80
2018-04-10T08:42:09.767Z,20.90
2018-04-10T08:43:09.765Z,20.60
2018-04-10T08:44:09.770Z,20.20
2018-04-10T08:45:09.771Z,20.50
2018-04-10T08:46:09.776Z,19.90
2018-04-10T08:47:09.773Z,19.60
2018-04-10T08:48:09.774Z,19.20
2018-04-10T08:49:09.776Z,19.80
2018-04-10T08:50:09.779Z,19.70
2018-04-10T08:51:09.777Z,19.30
2018-04-10T08:52:09.781Z,19.00
2018-04-10T08:53:09.783Z,19.90
2018-04-10T08:54:09.785Z,19.90
2018-04-10T08:55:09.790Z,18.70
2018-04-10T08:56:09.790Z,18.00
2018-04-10T08:57:09.792Z,19.10
2018-04-10T08:58:09.799Z,17.80
2018-04-10T08:59:09.795Z,18.70
2018-04-10T09:00:09.801Z,19.60
2018-04-10T09:01:09.798Z,19.50
2018-04-10T09:02:09.818Z,19.30
2018-04-10T09:03:09.804Z,19.50
2018-04-10T09:04:09.812Z,19.20
2018-04-10T09:05:09.810Z,18.50
2018-04-10T09:06:09.818Z,18.10
2018-04-10T09:07:09.816Z,18.30
2018-04-10T09:08:09.823Z,18.60
2018-04-10T09:09:09.825Z,18.60
2018-04-10T09:10:09.832Z,18.40
2018-04-10T09:11:09.828Z,18.20
2018-04-10T09:12:09.830Z,18.60
2018-04-10T09:13:09.834Z,18.60
2018-04-10T09:14:09.836Z,18.70
2018-04-10T09:15:09.839Z,17.70
2018-04-10T09:16:09.843Z,19.10
2018-04-10T09:17:09.848Z,17.40
2018-04-10T09:18:09.848Z,17.10
2018-04-10T09:19:09.853Z,17.30
2018-04-10T09:20:09.856Z,18.00
2018-04-10T09:21:09.863Z,16.60
2018-04-10T09:22:09.864Z,16.90
2018-04-10T09:23:09.865Z,16.30
2018-04-10T09:24:09.872Z,17.60
2018-04-10T09:25:09.877Z,17.90
2018-04-10T09:26:09.877Z,17.10
2018-04-10T09:27:09.877Z,15.70
2018-04-10T09:28:09.884Z,16.50
2018-04-10T09:29:09.919Z,16.50
2018-04-10T09:30:09.893Z,16.10
2018-04-10T09:31:09.896Z,16.30
2018-04-10T09:32:09.904Z,15.70
2018-04-10T09:33:09.901Z,16.30
2018-04-10T09:34:09.906Z,16.40
2018-04-10T09:35:09.909Z,17.00
2018-04-10T09:36:09.913Z,16.50
2018-04-10T09:37:09.918Z,15.40
2018-04-10T09:38:09.922Z,15.80
2018-04-10T09:39:09.926Z,16.00
2018-04-10T09:40:09.929Z,15.60
2018-04-10T09:41:09.935Z,16.30
2018-04-10T09:42:09.941Z,15.40
2018-04-10T09:43:09.952Z,16.20
2018-04-10T09:44:09.949Z,16.00
2018-04-10T09:45:09.953Z,15.20
2018-04-10T09:46:09.963Z,15.60
2018-04-10T09:47:09.964Z,13.90
2018-04-10T09:48:09.970Z,15.40
2018-04-10T09:49:09.974Z,15.30
2018-04-10T09:50:10.025Z,15.70
2018-04-10T09:51:09.979Z,15.50
2018-04-10T09:52:09.985Z,14.10
2018-04-10T09:53:09.991Z,14.30
2018-04-10T09:54:09.995Z,13.70
2018-04-10T09:55:10.005Z,14.10
2018-04-10T09:56:10.006Z,13.60
2018-04-10T09:57:10.010Z,14.10
2018-04-10T09:58:10.015Z,14.20
2018-04-10T09:59:10.022Z,15.20
2018-04-10T10:00:10.025Z,13.00
2018-04-10T10:01:10.030Z,13.60
2018-04-10T10:02:10.036Z,13.90
2018-04-10T10:03:10.040Z,13.60
2018-04-10T10:04:10.057Z,13.30
2018-04-10T10:05:10.053Z,14.10
2018-04-10T10:06:10.058Z,14.20
2018-04-10T10:07:10.064Z,14.10
2018-04-10T10:08:10.067Z,13.80
2018-04-10T10:09:10.077Z,13.70
2018-04-10T10:10:10.081Z,12.50
2018-04-10T10:11:10.088Z,13.80
2018-04-10T10:12:10.099Z,13.10
2018-04-10T10:13:10.096Z,13.40
2018-04-10T10:14:10.101Z,12.50
2018-04-10T10:15:10.108Z,13.30
2018-04-10T10:16:10.118Z,13.10
2018-04-10T10:17:10.119Z,12.70
2018-04-10T10:18:10.126Z,13.80
2018-04-10T10:19:10.130Z,11.80
2018-04-10T10:20:10.137Z,12.70
2018-04-10T10:21:10.143Z,15.00
2018-04-10T10:22:10.152Z,13.00
2018-04-10T10:23:10.153Z,13.30
2018-04-10T10:24:10.164Z,12.60
2018-04-10T10:25:10.169Z,12.90
2018-04-10T10:26:10.173Z,13.40
2018-04-10T10:27:10.178Z,13.10
2018-04-10T10:28:10.183Z,12.70
2018-04-10T10:29:10.190Z,12.60
2018-04-10T10:30:10.197Z,13.00
2018-04-10T10:31:10.205Z,12.20
2018-04-10T10:32:10.208Z,11.70
2018-04-10T10:33:10.219Z,13.10
2018-04-10T10:34:10.221Z,17.40
2018-04-10T10:35:10.223Z,12.60
2018-04-10T10:36:10.234Z,12.40
2018-04-10T10:37:10.239Z,13.10
2018-04-10T10:38:10.245Z,13.40
2018-04-10T10:39:10.297Z,14.60
2018-04-10T10:40:10.256Z,12.50
2018-04-10T10:41:10.263Z,13.70
2018-04-10T10:42:10.271Z,12.60
2018-04-10T10:43:10.275Z,13.30
2018-04-10T10:44:10.287Z,13.10
2018-04-10T10:45:10.289Z,13.00
2018-04-10T10:46:10.295Z,14.10
2018-04-10T10:47:10.300Z,12.50
2018-04-10T10:48:10.308Z,12.20
2018-04-10T10:49:10.314Z,11.90
2018-04-10T10:50:10.320Z,12.90
2018-04-10T10:51:10.325Z,12.40
2018-04-10T10:52:10.334Z,11.40
2018-04-10T10:53:10.340Z,12.30
2018-04-10T10:54:10.347Z,12.60
2018-04-10T10:55:10.358Z,11.80
2018-04-10T10:56:10.362Z,11.80
2018-04-10T10:57:10.367Z,11.20
2018-04-10T10:58:10.373Z,12.40
2018-04-10T10:59:10.379Z,11.70
2018-04-10T11:00:10.386Z,11.80
2018-04-10T11:01:10.397Z,11.80
2018-04-10T11:02:10.401Z,11.20
2018-04-10T11:03:10.405Z,11.90
2018-04-10T11:04:10.412Z,12.80
2018-04-10T11:05:10.420Z,12.50
2018-04-10T11:06:10.425Z,12.40
2018-04-10T11:07:10.429Z,12.50
2018-04-10T11:08:10.437Z,12.30
2018-04-10T11:09:10.446Z,11.40
2018-04-10T11:10:10.451Z,11.40
2018-04-10T11:11:10.463Z,11.30
2018-04-10T11:12:10.470Z,12.40
2018-04-10T11:13:10.467Z,12.40
2018-04-10T11:14:10.475Z,12.10
2018-04-10T11:15:10.485Z,11.50
2018-04-10T11:16:10.488Z,11.80
2018-04-10T11:17:10.494Z,11.70
2018-04-10T11:18:10.501Z,12.50
2018-04-10T11:19:10.507Z,11.40
2018-04-10T11:20:10.520Z,11.40
2018-04-10T11:21:10.520Z,12.50
2018-04-10T11:22:10.524Z,13.10
2018-04-10T11:23:10.532Z,12.80
2018-04-10T11:24:10.536Z,12.40
2018-04-10T11:25:10.542Z,12.50
2018-04-10T11:26:10.549Z,12.10
2018-04-10T11:27:10.589Z,11.50
2018-04-10T11:28:10.562Z,12.50
2018-04-10T11:29:10.572Z,11.70
2018-04-10T11:30:10.577Z,11.60
2018-04-10T11:31:10.584Z,11.40
2018-04-10T11:32:10.591Z,10.90
2018-04-10T11:33:10.594Z,11.60
2018-04-10T11:34:10.599Z,11.20
2018-04-10T11:35:10.605Z,12.70
2018-04-10T11:36:10.612Z,11.50
2018-04-10T11:37:10.616Z,11.50
2018-04-10T11:38:10.623Z,12.10
2018-04-10T11:39:10.678Z,10.50
2018-04-10T11:40:10.635Z,9.50
2018-04-10T11:41:10.641Z,9.90
2018-04-10T11:42:10.648Z,10.40
2018-04-10T11:43:10.658Z,12.20
2018-04-10T11:44:10.659Z,10.10
2018-04-10T11:45:10.664Z,8.70
2018-04-10T11:46:10.671Z,9.60
2018-04-10T11:47:10.673Z,8.30
2018-04-10T11:48:10.681Z,10.30
2018-04-10T11:49:10.684Z,8.80
2018-04-10T11:50:10.689Z,10.00
2018-04-10T11:51:10.698Z,9.50
2018-04-10T11:52:10.699Z,9.50
2018-04-10T11:53:10.705Z,9.10
2018-04-10T11:54:10.712Z,7.70
2018-04-10T11:55:10.725Z,7.70
2018-04-10T11:56:10.722Z,7.90
2018-04-10T11:57:10.732Z,11.60
2018-04-10T11:58:10.732Z,7.20
2018-04-10T11:59:10.737Z,7.00
2018-04-10T12:00:10.762Z,7.30
2018-04-10T12:01:10.747Z,8.60
2018-04-10T12:02:10.753Z,9.40
2018-04-10T12:03:10.759Z,9.20
2018-04-10T12:04:10.762Z,9.00
2018-04-10T12:05:10.775Z,10.10
2018-04-10T12:06:10.774Z,7.80
2018-04-10T12:07:10.776Z,7.00
2018-04-10T12:08:10.784Z,6.90
2018-04-10T12:09:10.785Z,6.50
2018-04-10T12:10:10.798Z,5.90
2018-04-10T12:11:10.795Z,7.60
2018-04-10T12:12:10.802Z,7.60
2018-04-10T12:13:10.807Z,7.30
2018-04-10T12:14:10.810Z,7.50
2018-04-10T12:15:10.816Z,7.80
2018-04-10T12:16:10.821Z,5.50
2018-04-10T12:17:10.833Z,7.70
2018-04-10T12:18:10.830Z,5.90
2018-04-10T12:19:10.844Z,5.70
2018-04-10T12:20:10.841Z,5.20
2018-04-10T12:21:10.856Z,6.20
2018-04-10T12:22:10.846Z,6.20
2018-04-10T12:23:10.851Z,6.70
2018-04-10T12:24:10.858Z,7.10
2018-04-10T12:25:10.868Z,6.20
2018-04-10T12:26:10.864Z,4.60
2018-04-10T12:27:10.868Z,4.10
2018-04-10T12:28:10.877Z,5.50
2018-04-10T12:29:10.878Z,4.30
2018-04-10T12:30:10.885Z,5.40
2018-04-10T12:31:10.885Z,3.90
2018-04-10T12:32:10.890Z,5.40
2018-04-10T12:33:10.894Z,3.80
2018-04-10T12:34:10.907Z,5.90
2018-04-10T12:35:10.907Z,5.80
2018-04-10T12:36:10.912Z,4.70
2018-04-10T12:37:10.913Z,4.30
2018-04-10T12:38:10.919Z,5.10
2018-04-10T12:39:10.924Z,5.60
2018-04-10T12:40:10.923Z,5.10
2018-04-10T12:41:10.928Z,6.10
2018-04-10T12:42:10.932Z,8.10
2018-04-10T12:43:10.935Z,5.80
2018-04-10T12:44:10.939Z,7.30
2018-04-10T12:45:10.944Z,6.20
2018-04-10T12:46:10.949Z,6.90
2018-04-10T12:47:10.950Z,8.10
2018-04-10T12:48:10.957Z,8.00
2018-04-10T12:49:10.959Z,10.20
2018-04-10T12:50:10.963Z,8.40
2018-04-10T12:51:10.975Z,8.90
2018-04-10T12:52:10.970Z,7.90
2018-04-10T12:53:10.980Z,8.30
2018-04-10T12:54:10.986Z,7.40
2018-04-10T12:55:10.977Z,10.60
2018-04-10T12:56:10.988Z,7.50
2018-04-10T12:57:10.987Z,7.50
2018-04-10T12:58:10.991Z,7.90
2018-04-10T12:59:10.994Z,9.30
2018-04-10T13:00:10.996Z,8.20